createdAt,value
2022-08-17T00:00:03.117Z,22.59
2022-08-17T00:02:47.864Z,22.49
2022-08-17T00:05:32.548Z,22.44
2022-08-17T00:08:17.508Z,22.60
2022-08-17T00:11:02.226Z,22.90
2022-08-17T00:13:46.990Z,22.99
2022-08-17T00:16:56.397Z,23.05
2022-08-17T00:19:36.657Z,23.17
2022-08-17T00:22:34.726Z,22.99
2022-08-17T00:25:20.869Z,22.82
2022-08-17T00:28:05.750Z,22.69
2022-08-17T00:30:53.344Z,22.45
2022-08-17T00:33:38.603Z,22.30
2022-08-17T00:36:23.295Z,22.19
2022-08-17T00:39:08.065Z,22.07
2022-08-17T00:41:52.786Z,21.89
2022-08-17T00:44:37.525Z,21.78
2022-08-17T00:47:22.514Z,21.72
2022-08-17T00:50:07.204Z,21.59
2022-08-17T00:52:52.268Z,21.63
2022-08-17T00:55:37.370Z,21.63
2022-08-17T00:58:30.452Z,22.05
2022-08-17T01:01:22.077Z,22.43
2022-08-17T01:04:07.232Z,22.39
2022-08-17T01:06:52.203Z,22.39
2022-08-17T01:09:36.946Z,22.52
2022-08-17T01:12:21.774Z,22.31
2022-08-17T01:15:06.424Z,22.04
2022-08-17T01:17:51.224Z,21.89
2022-08-17T01:20:47.946Z,21.98
2022-08-17T01:23:33.279Z,21.73
2022-08-17T01:26:17.949Z,21.55
2022-08-17T01:29:02.856Z,21.72
2022-08-17T01:31:47.576Z,21.82
2022-08-17T01:34:42.460Z,21.67
2022-08-17T01:37:28.333Z,21.52
2022-08-17T01:40:13.190Z,21.58
2022-08-17T01:42:58.393Z,21.52
2022-08-17T01:45:43.337Z,21.77
2022-08-17T01:48:28.154Z,22.06
2022-08-17T01:51:12.957Z,21.97
2022-08-17T01:53:57.810Z,22.02
2022-08-17T01:56:42.953Z,22.16
2022-08-17T01:59:27.705Z,22.01
2022-08-17T02:02:12.517Z,21.89
2022-08-17T02:05:16.674Z,21.82
2022-08-17T02:08:01.299Z,21.88
2022-08-17T02:10:47.178Z,21.86
2022-08-17T02:13:32.463Z,21.68
2022-08-17T02:16:17.097Z,21.55
2022-08-17T02:19:01.852Z,21.52
2022-08-17T02:21:46.417Z,21.42
2022-08-17T02:24:58.279Z,21.41
2022-08-17T02:27:36.123Z,21.41
2022-08-17T02:31:01.946Z,21.32
2022-08-17T02:33:41.637Z,21.43
2022-08-17T02:36:27.576Z,21.44
2022-08-17T02:39:12.343Z,21.39
2022-08-17T02:41:57.077Z,21.32
2022-08-17T02:44:41.785Z,21.43
2022-08-17T02:47:26.585Z,21.86
2022-08-17T02:50:11.323Z,21.87
2022-08-17T02:53:01.778Z,21.78
2022-08-17T02:55:47.664Z,21.76
2022-08-17T02:58:35.777Z,21.68
2022-08-17T03:01:21.177Z,21.98
2022-08-17T03:04:06.400Z,22.30
2022-08-17T03:06:51.146Z,22.35
2022-08-17T03:09:35.853Z,22.23
2022-08-17T03:12:20.418Z,22.33
2022-08-17T03:15:05.085Z,22.10
2022-08-17T03:17:49.883Z,21.91
2022-08-17T03:20:34.762Z,21.67
2022-08-17T03:23:23.985Z,21.51
2022-08-17T03:26:12.269Z,21.55
2022-08-17T03:29:00.535Z,21.58
2022-08-17T03:31:45.190Z,21.56
2022-08-17T03:34:29.961Z,21.36
2022-08-17T03:37:14.957Z,21.40
2022-08-17T03:39:59.593Z,21.09
2022-08-17T03:42:44.756Z,20.93
2022-08-17T03:45:29.448Z,20.71
2022-08-17T03:48:18.140Z,20.72
2022-08-17T03:51:02.990Z,21.16
2022-08-17T03:53:47.604Z,21.01
2022-08-17T03:56:32.375Z,20.76
2022-08-17T03:59:21.055Z,20.75
2022-08-17T04:02:07.253Z,20.90
2022-08-17T04:04:52.225Z,21.22
2022-08-17T04:07:37.581Z,21.22
2022-08-17T04:10:25.989Z,21.27
2022-08-17T04:13:11.572Z,21.26
2022-08-17T04:15:56.406Z,21.08
2022-08-17T04:18:41.563Z,20.86
2022-08-17T04:21:26.535Z,20.90
2022-08-17T04:24:11.193Z,21.38
2022-08-17T04:26:56.099Z,21.44
2022-08-17T04:29:55.072Z,21.69
2022-08-17T04:33:03.493Z,21.35
2022-08-17T04:35:45.696Z,21.10
2022-08-17T04:38:30.402Z,21.40
2022-08-17T04:41:15.138Z,21.49
2022-08-17T04:43:59.805Z,21.72
2022-08-17T04:46:44.680Z,21.85
2022-08-17T04:49:29.518Z,21.83
2022-08-17T04:52:29.845Z,21.59
2022-08-17T04:55:19.263Z,21.26
2022-08-17T04:58:04.085Z,20.97
2022-08-17T05:00:48.850Z,21.16
2022-08-17T05:03:33.959Z,20.97
2022-08-17T05:06:18.712Z,21.30
2022-08-17T05:09:03.507Z,21.64
2022-08-17T05:11:48.362Z,21.91
2022-08-17T05:14:33.983Z,22.22
2022-08-17T05:17:18.946Z,22.09
2022-08-17T05:20:03.658Z,21.81
2022-08-17T05:22:48.446Z,21.66
2022-08-17T05:25:34.564Z,21.57
2022-08-17T05:28:23.507Z,21.57
2022-08-17T05:31:09.384Z,21.89
2022-08-17T05:33:54.183Z,21.98
2022-08-17T05:36:43.442Z,21.97
2022-08-17T05:39:29.481Z,21.99
2022-08-17T05:42:15.908Z,21.80
2022-08-17T05:45:00.837Z,21.93
2022-08-17T05:47:45.680Z,21.86
2022-08-17T05:50:30.935Z,21.91
2022-08-17T05:53:15.658Z,22.08
2022-08-17T05:56:00.478Z,22.15
2022-08-17T05:58:45.158Z,22.29
2022-08-17T06:01:30.138Z,22.34
2022-08-17T06:04:15.878Z,22.24
2022-08-17T06:07:00.679Z,22.09
2022-08-17T06:09:45.453Z,22.00
2022-08-17T06:12:30.209Z,22.10
2022-08-17T06:15:16.488Z,22.08
2022-08-17T06:18:01.311Z,22.11
2022-08-17T06:20:46.161Z,22.24
2022-08-17T06:23:30.912Z,22.24
2022-08-17T06:26:15.782Z,22.52
2022-08-17T06:29:00.566Z,22.72
2022-08-17T06:31:45.343Z,22.64
2022-08-17T06:34:30.158Z,23.28
2022-08-17T06:37:15.027Z,23.21
2022-08-17T06:39:59.903Z,23.47
2022-08-17T06:43:02.358Z,23.39
2022-08-17T06:45:49.620Z,23.94
2022-08-17T06:48:34.416Z,25.48
2022-08-17T06:51:19.202Z,26.21
2022-08-17T06:54:04.009Z,25.86
2022-08-17T06:56:53.694Z,25.67
2022-08-17T06:59:55.163Z,25.92
2022-08-17T07:02:51.324Z,27.19
2022-08-17T07:05:38.810Z,29.01
2022-08-17T07:08:29.679Z,30.52
2022-08-17T07:11:16.398Z,30.72
2022-08-17T07:14:01.268Z,29.71
2022-08-17T07:16:46.064Z,30.17
2022-08-17T07:19:30.800Z,31.51
2022-08-17T07:22:15.800Z,32.41
2022-08-17T07:25:00.667Z,32.81
2022-08-17T07:27:45.383Z,32.43
2022-08-17T07:30:30.163Z,32.71
2022-08-17T07:33:15.410Z,31.84
2022-08-17T07:36:00.191Z,31.25
2022-08-17T07:38:45.063Z,30.26
2022-08-17T07:41:53.402Z,28.78
2022-08-17T07:44:34.896Z,27.95
2022-08-17T07:47:20.660Z,27.16
2022-08-17T07:50:05.437Z,26.67
2022-08-17T07:52:51.714Z,26.46
2022-08-17T07:55:37.352Z,26.56
2022-08-17T07:58:22.137Z,26.82
2022-08-17T08:01:06.872Z,26.84
2022-08-17T08:03:52.752Z,27.11
2022-08-17T08:06:38.079Z,27.29
2022-08-17T08:09:22.830Z,26.90
2022-08-17T08:12:07.636Z,26.81
2022-08-17T08:15:00.946Z,26.72
2022-08-17T08:17:45.668Z,26.72
2022-08-17T08:20:51.029Z,26.69
2022-08-17T08:23:35.415Z,26.75
2022-08-17T08:26:20.269Z,26.89
2022-08-17T08:29:05.111Z,26.66
2022-08-17T08:31:49.889Z,26.52
2022-08-17T08:35:00.559Z,26.81
2022-08-17T08:37:42.991Z,27.08
2022-08-17T08:40:28.622Z,26.95
2022-08-17T08:43:13.419Z,26.76
2022-08-17T08:45:58.534Z,27.02
2022-08-17T08:48:56.564Z,27.17
2022-08-17T08:51:45.776Z,27.22
2022-08-17T08:54:30.423Z,27.36
2022-08-17T08:57:26.878Z,27.44
2022-08-17T09:00:14.002Z,27.68
2022-08-17T09:02:58.904Z,27.64
2022-08-17T09:05:43.562Z,27.60
2022-08-17T09:08:28.210Z,27.34
2022-08-17T09:11:12.791Z,27.36
2022-08-17T09:13:57.503Z,27.33
2022-08-17T09:16:42.097Z,26.96
2022-08-17T09:19:26.861Z,27.03
2022-08-17T09:22:11.640Z,27.29
2022-08-17T09:24:56.385Z,27.35
2022-08-17T09:27:41.244Z,27.22
2022-08-17T09:30:25.958Z,26.80
2022-08-17T09:33:10.807Z,26.83
2022-08-17T09:35:55.573Z,26.69
2022-08-17T09:38:40.306Z,26.65
2022-08-17T09:41:25.113Z,26.58
2022-08-17T09:44:23.027Z,26.73
2022-08-17T09:47:08.778Z,26.60
2022-08-17T09:49:53.515Z,26.49
2022-08-17T09:52:38.197Z,26.63
2022-08-17T09:55:22.933Z,26.56
2022-08-17T09:58:08.177Z,26.43
2022-08-17T10:00:52.983Z,26.22
2022-08-17T10:03:38.267Z,26.34
2022-08-17T10:06:22.967Z,26.32
2022-08-17T10:09:08.026Z,26.40
2022-08-17T10:11:53.043Z,26.47
2022-08-17T10:14:44.145Z,26.35
2022-08-17T10:17:29.730Z,26.41
2022-08-17T10:20:14.452Z,26.54
2022-08-17T10:22:59.253Z,26.87
2022-08-17T10:25:59.517Z,27.07
2022-08-17T10:28:44.478Z,27.02
2022-08-17T10:31:36.555Z,27.06
2022-08-17T10:34:21.524Z,27.33
2022-08-17T10:37:06.097Z,27.38
2022-08-17T10:39:52.809Z,27.21
2022-08-17T10:42:38.192Z,27.20
2022-08-17T10:45:22.964Z,27.04
2022-08-17T10:48:07.886Z,27.02
2022-08-17T10:50:52.868Z,27.09
2022-08-17T10:53:37.788Z,27.14
2022-08-17T10:56:25.476Z,27.15
2022-08-17T10:59:10.224Z,27.05
2022-08-17T11:01:54.883Z,27.06
2022-08-17T11:04:40.084Z,27.15
2022-08-17T11:07:25.069Z,27.17
2022-08-17T11:10:09.792Z,27.02
2022-08-17T11:12:54.838Z,27.05
2022-08-17T11:15:39.611Z,27.10
2022-08-17T11:18:24.358Z,26.82
2022-08-17T11:21:09.208Z,26.72
2022-08-17T11:23:54.073Z,26.88
2022-08-17T11:26:38.781Z,27.19
2022-08-17T11:29:24.785Z,27.25
2022-08-17T11:32:11.111Z,27.43
2022-08-17T11:34:56.398Z,27.07
2022-08-17T11:37:41.219Z,27.31
2022-08-17T11:40:25.790Z,27.48
2022-08-17T11:43:11.615Z,27.29
2022-08-17T11:45:56.504Z,27.24
2022-08-17T11:48:41.341Z,27.14
2022-08-17T11:51:26.316Z,27.40
2022-08-17T11:57:15.685Z,27.73
2022-08-17T12:00:00.387Z,27.68
2022-08-17T12:02:48.087Z,27.63
2022-08-17T12:05:33.450Z,27.60
2022-08-17T12:08:18.085Z,27.47
2022-08-17T12:11:02.941Z,27.55
2022-08-17T12:13:47.584Z,27.46
2022-08-17T12:16:32.662Z,27.54
2022-08-17T12:19:17.843Z,27.62
2022-08-17T12:22:02.574Z,27.76
2022-08-17T12:24:47.534Z,27.96
2022-08-17T12:28:04.466Z,28.18
2022-08-17T12:30:37.243Z,28.26
2022-08-17T12:33:27.943Z,28.22
2022-08-17T12:36:13.729Z,28.12
2022-08-17T12:38:58.309Z,28.01
2022-08-17T12:41:43.167Z,27.99
2022-08-17T12:44:28.013Z,27.97
2022-08-17T12:47:14.871Z,28.10
2022-08-17T12:50:02.052Z,28.13
2022-08-17T12:52:46.651Z,28.20
2022-08-17T12:55:33.810Z,28.23
2022-08-17T12:58:19.126Z,28.28
2022-08-17T13:01:04.434Z,28.24
2022-08-17T13:03:49.224Z,28.30
2022-08-17T13:06:34.042Z,28.25
2022-08-17T13:09:18.852Z,28.20
2022-08-17T13:12:03.453Z,28.03
2022-08-17T13:14:50.442Z,27.77
2022-08-17T13:17:35.096Z,27.68
2022-08-17T13:20:19.815Z,27.71
2022-08-17T13:23:08.724Z,27.52
2022-08-17T13:25:56.921Z,27.40
2022-08-17T13:28:41.621Z,27.48
2022-08-17T13:31:26.468Z,27.49
2022-08-17T13:34:11.204Z,27.52
2022-08-17T13:36:56.027Z,27.66
2022-08-17T13:39:41.805Z,27.74
2022-08-17T13:42:26.953Z,27.81
2022-08-17T13:45:35.037Z,27.90
2022-08-17T13:48:16.413Z,27.96
2022-08-17T13:51:01.305Z,27.96
2022-08-17T13:53:45.891Z,27.90
2022-08-17T13:56:33.504Z,27.72
2022-08-17T13:59:53.078Z,27.53
2022-08-17T14:02:28.839Z,27.43
2022-08-17T14:05:13.727Z,27.43
2022-08-17T14:07:59.100Z,27.37
2022-08-17T14:10:43.865Z,27.27
2022-08-17T14:13:28.611Z,27.26
2022-08-17T14:16:13.611Z,27.24
2022-08-17T14:18:58.369Z,27.25
2022-08-17T14:21:43.182Z,27.11
2022-08-17T14:24:27.837Z,27.07
2022-08-17T14:27:12.589Z,26.98
2022-08-17T14:29:57.355Z,26.89
2022-08-17T14:32:42.199Z,26.88
2022-08-17T14:35:26.958Z,26.81
2022-08-17T14:38:11.554Z,26.70
2022-08-17T14:40:56.363Z,26.52
2022-08-17T14:43:41.221Z,26.36
2022-08-17T14:46:26.044Z,26.12
2022-08-17T14:49:10.840Z,26.02
2022-08-17T14:51:55.693Z,25.90
2022-08-17T14:54:45.550Z,25.96
2022-08-17T14:57:34.023Z,25.96
2022-08-17T15:00:19.294Z,26.05
2022-08-17T15:03:04.051Z,26.19
2022-08-17T15:05:48.937Z,26.38
2022-08-17T15:08:33.800Z,26.48
2022-08-17T15:11:18.588Z,26.75
2022-08-17T15:14:03.487Z,26.93
2022-08-17T15:16:48.277Z,27.08
2022-08-17T15:19:33.100Z,26.83
2022-08-17T15:22:17.681Z,26.78
2022-08-17T15:25:02.320Z,26.82
2022-08-17T15:27:46.992Z,26.94
2022-08-17T15:30:32.213Z,26.98
2022-08-17T15:33:16.895Z,26.73
2022-08-17T15:36:01.558Z,26.61
2022-08-17T15:38:46.567Z,26.49
2022-08-17T15:41:31.379Z,26.52
2022-08-17T15:44:16.181Z,26.51
2022-08-17T15:47:00.875Z,26.60
2022-08-17T15:49:45.672Z,26.78
2022-08-17T15:52:30.386Z,26.87
2022-08-17T15:55:15.316Z,26.88
2022-08-17T15:57:59.940Z,26.82
2022-08-17T16:01:14.108Z,26.84
2022-08-17T16:04:06.921Z,26.84
2022-08-17T16:06:52.534Z,26.79
2022-08-17T16:09:37.706Z,26.78
2022-08-17T16:12:22.509Z,26.82
2022-08-17T16:15:07.162Z,26.84
2022-08-17T16:17:52.203Z,26.90
2022-08-17T16:20:37.197Z,26.88
2022-08-17T16:23:22.105Z,26.77
2022-08-17T16:26:06.805Z,26.70
2022-08-17T16:28:51.736Z,26.60
2022-08-17T16:31:36.375Z,26.60
2022-08-17T16:34:21.153Z,26.62
2022-08-17T16:37:06.005Z,26.57
2022-08-17T16:39:50.771Z,26.52
2022-08-17T16:42:36.070Z,26.49
2022-08-17T16:45:20.775Z,26.48
2022-08-17T16:48:05.552Z,26.37
2022-08-17T16:51:03.126Z,26.29
2022-08-17T16:53:49.241Z,26.20
2022-08-17T16:56:44.143Z,26.09
2022-08-17T16:59:38.859Z,26.02
2022-08-17T17:02:27.603Z,25.95
2022-08-17T17:05:12.363Z,25.87
2022-08-17T17:07:57.053Z,25.80
2022-08-17T17:10:41.923Z,25.73
2022-08-17T17:13:26.605Z,25.62
2022-08-17T17:16:11.467Z,25.59
2022-08-17T17:18:56.143Z,25.56
2022-08-17T17:21:40.855Z,25.51
2022-08-17T17:24:25.672Z,25.47
2022-08-17T17:27:14.893Z,25.19
2022-08-17T17:29:59.676Z,24.97
2022-08-17T17:32:44.429Z,24.83
2022-08-17T17:35:29.157Z,24.83
2022-08-17T17:38:13.850Z,24.85
2022-08-17T17:41:02.385Z,24.82
2022-08-17T17:43:48.019Z,24.92
2022-08-17T17:46:32.688Z,24.88
2022-08-17T17:49:17.506Z,24.82
2022-08-17T17:52:10.115Z,24.78
2022-08-17T17:54:56.995Z,24.72
2022-08-17T17:57:41.712Z,24.69
2022-08-17T18:00:26.607Z,24.60
2022-08-17T18:03:11.283Z,24.64
2022-08-17T18:05:56.210Z,24.61
2022-08-17T18:08:41.419Z,24.66
2022-08-17T18:11:33.050Z,24.46
2022-08-17T18:14:20.209Z,24.34
2022-08-17T18:17:04.905Z,24.24
2022-08-17T18:19:49.550Z,24.22
2022-08-17T18:22:34.238Z,23.98
2022-08-17T18:25:18.927Z,23.98
2022-08-17T18:28:03.899Z,23.83
2022-08-17T18:30:48.607Z,23.46
2022-08-17T18:33:33.527Z,23.38
2022-08-17T18:36:18.282Z,23.23
2022-08-17T18:39:03.119Z,23.09
2022-08-17T18:41:47.879Z,23.05
2022-08-17T18:44:32.779Z,22.94
2022-08-17T18:47:17.464Z,22.80
2022-08-17T18:50:02.099Z,22.71
2022-08-17T18:52:46.921Z,22.66
2022-08-17T18:55:31.667Z,22.60
2022-08-17T18:58:16.636Z,22.60
2022-08-17T19:01:01.433Z,22.59
2022-08-17T19:03:46.309Z,22.60
2022-08-17T19:06:31.043Z,22.52
2022-08-17T19:09:15.857Z,22.57
2022-08-17T19:12:01.717Z,22.47
2022-08-17T19:14:46.766Z,22.32
2022-08-17T19:17:31.662Z,22.31
2022-08-17T19:20:16.364Z,22.29
2022-08-17T19:23:01.070Z,22.14
2022-08-17T19:25:45.647Z,22.08
2022-08-17T19:28:30.443Z,22.00
2022-08-17T19:31:15.252Z,21.98
2022-08-17T19:33:59.874Z,21.71
2022-08-17T19:36:44.640Z,21.12
2022-08-17T19:39:38.055Z,20.88
2022-08-17T19:42:23.499Z,20.54
2022-08-17T19:45:08.233Z,20.18
2022-08-17T19:48:02.790Z,20.11
2022-08-17T19:50:48.355Z,20.00
2022-08-17T19:53:54.047Z,19.87
2022-08-17T19:56:38.316Z,19.73
2022-08-17T19:59:23.200Z,19.61
2022-08-17T20:02:07.950Z,19.55
2022-08-17T20:04:52.654Z,19.59
2022-08-17T20:07:37.606Z,19.63
2022-08-17T20:10:22.409Z,19.52
2022-08-17T20:13:07.104Z,19.39
2022-08-17T20:15:51.901Z,19.46
2022-08-17T20:18:37.108Z,19.53
2022-08-17T20:21:21.863Z,19.55
2022-08-17T20:24:06.596Z,19.43
2022-08-17T20:26:55.225Z,19.23
2022-08-17T20:29:43.414Z,19.34
2022-08-17T20:32:28.091Z,19.40
2022-08-17T20:35:12.859Z,19.53
2022-08-17T20:37:57.542Z,19.53
2022-08-17T20:40:42.299Z,19.44
2022-08-17T20:43:27.068Z,19.46
2022-08-17T20:46:11.947Z,19.47
2022-08-17T20:48:56.816Z,19.41
2022-08-17T20:51:41.482Z,19.40
2022-08-17T20:54:45.714Z,19.44
2022-08-17T20:57:30.445Z,19.44
2022-08-17T21:00:15.194Z,19.26
2022-08-17T21:02:59.983Z,19.18
2022-08-17T21:05:44.737Z,19.08
2022-08-17T21:08:37.069Z,19.08
2022-08-17T21:11:21.958Z,18.99
2022-08-17T21:14:26.775Z,18.96
2022-08-17T21:17:14.434Z,18.90
2022-08-17T21:20:14.547Z,18.76
2022-08-17T21:22:59.442Z,18.73
2022-08-17T21:25:44.337Z,18.64
2022-08-17T21:28:33.674Z,18.56
2022-08-17T21:31:19.196Z,18.43
2022-08-17T21:34:05.993Z,18.42
2022-08-17T21:36:51.495Z,18.19
2022-08-17T21:39:36.590Z,18.05
2022-08-17T21:42:21.584Z,17.86
2022-08-17T21:45:06.349Z,17.90
2022-08-17T21:47:51.257Z,17.94
2022-08-17T21:50:36.452Z,18.10
2022-08-17T21:53:21.372Z,18.15
2022-08-17T21:56:06.193Z,18.18
2022-08-17T21:58:50.799Z,18.19
2022-08-17T22:01:35.701Z,18.14
2022-08-17T22:04:20.717Z,18.18
2022-08-17T22:07:05.544Z,18.17
2022-08-17T22:09:50.229Z,18.16
2022-08-17T22:12:34.957Z,18.15
2022-08-17T22:15:19.619Z,18.18
2022-08-17T22:18:04.496Z,18.18
2022-08-17T22:20:49.269Z,18.18
2022-08-17T22:23:34.026Z,18.22
2022-08-17T22:26:18.777Z,18.21
2022-08-17T22:29:03.569Z,18.16
2022-08-17T22:31:48.476Z,18.04
2022-08-17T22:34:33.112Z,18.04
2022-08-17T22:37:17.846Z,18.04
2022-08-17T22:40:02.495Z,18.00
2022-08-17T22:42:47.402Z,18.01
2022-08-17T22:45:32.011Z,18.07
2022-08-17T22:48:16.968Z,18.09
2022-08-17T22:51:01.674Z,18.06
2022-08-17T22:53:46.415Z,18.08
2022-08-17T22:56:32.305Z,18.05
2022-08-17T22:59:17.048Z,18.05
2022-08-17T23:02:01.757Z,18.05
2022-08-17T23:04:46.516Z,18.01
2022-08-17T23:07:31.417Z,18.05
2022-08-17T23:10:16.225Z,18.07
2022-08-17T23:13:01.046Z,17.97
2022-08-17T23:15:46.273Z,17.92
2022-08-17T23:18:31.002Z,17.92
2022-08-17T23:21:16.108Z,17.95
2022-08-17T23:24:11.937Z,17.97
2022-08-17T23:26:56.585Z,17.97
2022-08-17T23:29:41.434Z,18.00
2022-08-17T23:32:26.090Z,18.03
2022-08-17T23:35:10.916Z,18.08
2022-08-17T23:37:55.742Z,18.05
2022-08-17T23:40:40.715Z,18.07
2022-08-17T23:43:28.150Z,18.11
2022-08-17T23:46:13.148Z,17.93
2022-08-17T23:48:57.817Z,17.83
2022-08-17T23:51:42.820Z,17.62
2022-08-17T23:54:27.636Z,17.49
2022-08-17T23:57:12.447Z,17.44
2022-08-17T23:59:57.260Z,17.30
